createdAt,value
2023-02-06T00:03:52.317Z,-6.65
2023-02-06T00:33:55.867Z,-6.65
2023-02-06T02:33:44.518Z,-6.04
2023-02-06T03:03:44.188Z,-5.24
2023-02-06T03:33:46.739Z,-4.62
2023-02-06T04:04:06.285Z,-3.96
2023-02-06T05:03:51.766Z,-3.14
2023-02-06T05:33:44.942Z,-2.95
2023-02-06T06:03:45.136Z,-2.77
2023-02-06T06:33:48.916Z,-2.67
2023-02-06T07:03:41.739Z,-2.54
2023-02-06T07:33:43.866Z,-2.34
2023-02-06T08:03:51.724Z,-2.08
2023-02-06T09:03:44.740Z,-1.66
2023-02-06T09:33:44.798Z,-1.42
2023-02-06T10:03:46.277Z,-1.13
2023-02-06T10:33:46.019Z,-0.61
2023-02-06T11:03:49.752Z,-0.09
2023-02-06T11:33:46.628Z,0.04
2023-02-06T12:03:43.596Z,-0.11
2023-02-06T12:33:40.842Z,-0.2
2023-02-06T13:03:48.845Z,-0.24
2023-02-06T13:33:48.936Z,0.09
2023-02-06T14:03:47.781Z,0.28
2023-02-06T14:33:46.332Z,0.01
2023-02-06T15:03:47.649Z,-0.07
2023-02-06T15:33:39.594Z,-0.35
2023-02-06T16:03:47.237Z,-1.22
2023-02-06T16:33:44.921Z,-1.99
2023-02-06T17:03:44.158Z,-2.73
2023-02-06T17:33:42.144Z,-3.35
2023-02-06T18:03:48.173Z,-3.87
2023-02-06T18:03:48.485Z,-3.87
2023-02-06T18:33:45.209Z,-4.42
2023-02-06T19:03:43.088Z,-4.95
2023-02-06T19:33:43.141Z,-5.34
2023-02-06T20:03:40.792Z,-5.76
2023-02-06T20:33:38.584Z,-6.13
2023-02-06T21:03:39.919Z,-6.47
2023-02-06T21:33:43.860Z,-6.77
2023-02-06T22:03:33.273Z,-7.05
2023-02-06T22:33:32.932Z,-7.19
2023-02-06T23:03:38.353Z,-7.55
2023-02-06T23:33:38.622Z,-7.65
